createdAt,value
2019-04-20T00:00:51.031Z,11.40
2019-04-20T00:02:53.835Z,10.30
2019-04-20T00:04:55.052Z,11.53
2019-04-20T00:06:57.961Z,11.20
2019-04-20T00:09:07.354Z,11.88
2019-04-20T00:11:11.727Z,11.78
2019-04-20T00:13:21.696Z,12.45
2019-04-20T00:15:13.812Z,11.60
2019-04-20T00:17:15.976Z,11.83
2019-04-20T00:19:26.205Z,11.88
2019-04-20T00:22:01.977Z,11.48
2019-04-20T00:24:10.072Z,10.88
2019-04-20T00:26:32.193Z,11.68
2019-04-20T00:28:40.837Z,12.10
2019-04-20T00:30:46.786Z,12.43
2019-04-20T00:32:46.910Z,11.68
2019-04-20T00:34:38.488Z,12.55
2019-04-20T00:36:37.557Z,12.70
2019-04-20T00:38:45.630Z,13.55
2019-04-20T00:40:43.716Z,12.23
2019-04-20T00:42:51.781Z,11.93
2019-04-20T00:45:00.058Z,12.20
2019-04-20T00:47:11.143Z,12.80
2019-04-20T00:49:16.445Z,12.70
2019-04-20T00:51:24.971Z,13.10
2019-04-20T00:53:21.734Z,13.10
2019-04-20T00:55:13.357Z,12.13
2019-04-20T00:57:24.474Z,12.55
2019-04-20T00:59:31.985Z,12.90
2019-04-20T01:01:44.162Z,12.73
2019-04-20T01:03:43.530Z,13.35
2019-04-20T01:05:58.205Z,12.03
2019-04-20T01:07:56.334Z,13.08
2019-04-20T01:10:06.878Z,12.55
2019-04-20T01:12:15.245Z,12.65
2019-04-20T01:14:15.773Z,13.28
2019-04-20T01:16:28.145Z,13.70
2019-04-20T01:18:20.922Z,13.10
2019-04-20T01:20:26.484Z,13.65
2019-04-20T01:22:28.671Z,12.98
2019-04-20T01:24:35.345Z,13.58
2019-04-20T01:26:42.114Z,13.53
2019-04-20T01:28:54.203Z,14.13
2019-04-20T01:30:56.254Z,13.60
2019-04-20T01:33:00.204Z,12.78
2019-04-20T01:35:02.364Z,13.35
2019-04-20T01:37:10.480Z,14.83
2019-04-20T01:39:10.238Z,13.78
2019-04-20T01:41:03.359Z,13.70
2019-04-20T01:43:05.702Z,14.20
2019-04-20T01:45:14.639Z,13.70
2019-04-20T01:47:13.304Z,14.33
2019-04-20T01:49:21.005Z,13.38
2019-04-20T01:51:26.383Z,15.23
2019-04-20T01:53:46.505Z,13.15
2019-04-20T01:55:50.777Z,13.98
2019-04-20T01:58:00.517Z,14.65
2019-04-20T02:00:03.582Z,14.63
2019-04-20T02:02:20.956Z,14.50
2019-04-20T02:04:45.926Z,14.87
2019-04-20T02:06:50.345Z,15.25
2019-04-20T02:08:53.134Z,14.73
2019-04-20T02:10:58.662Z,14.98
2019-04-20T02:13:01.059Z,15.32
2019-04-20T02:15:04.776Z,13.20
2019-04-20T02:17:16.847Z,14.78
2019-04-20T02:19:28.958Z,14.87
2019-04-20T02:21:30.978Z,14.85
2019-04-20T02:23:31.533Z,15.10
2019-04-20T02:25:22.756Z,14.73
2019-04-20T02:27:31.276Z,16.07
2019-04-20T02:29:57.048Z,15.40
2019-04-20T02:32:11.968Z,14.35
2019-04-20T02:34:15.697Z,14.65
2019-04-20T02:39:15.272Z,14.68
2019-04-20T02:41:03.215Z,15.23
2019-04-20T02:45:28.598Z,15.35
2019-04-20T02:49:19.715Z,15.55
2019-04-20T02:51:12.994Z,15.18
2019-04-20T02:53:20.344Z,15.23
2019-04-20T02:55:28.178Z,14.93
2019-04-20T02:57:33.505Z,15.30
2019-04-20T03:01:30.694Z,14.68
2019-04-20T03:03:26.465Z,15.90
2019-04-20T03:05:33.207Z,15.68
2019-04-20T03:07:41.423Z,14.38
2019-04-20T03:09:45.141Z,15.13
2019-04-20T03:13:59.044Z,15.88
2019-04-20T03:16:00.115Z,14.95
2019-04-20T03:18:08.799Z,15.40
2019-04-20T03:20:06.895Z,15.13
2019-04-20T03:22:13.704Z,15.60
2019-04-20T03:24:26.748Z,15.60
2019-04-20T03:26:27.738Z,15.43
2019-04-20T03:29:00.214Z,15.13
2019-04-20T03:31:41.672Z,15.98
2019-04-20T03:35:34.088Z,15.98
2019-04-20T03:37:27.034Z,14.70
2019-04-20T03:39:25.917Z,16.35
2019-04-20T03:41:19.527Z,16.05
2019-04-20T03:43:15.873Z,16.17
2019-04-20T03:45:21.111Z,15.35
2019-04-20T03:47:31.587Z,16.90
2019-04-20T03:49:52.190Z,16.07
2019-04-20T03:51:53.423Z,17.67
2019-04-20T03:54:10.701Z,17.52
2019-04-20T03:56:33.484Z,17.67
2019-04-20T03:58:46.025Z,16.10
2019-04-20T04:00:55.513Z,16.62
2019-04-20T04:03:12.657Z,17.27
2019-04-20T04:05:21.665Z,16.70
2019-04-20T04:07:16.687Z,16.12
2019-04-20T04:09:23.640Z,16.45
2019-04-20T04:11:31.511Z,16.67
2019-04-20T04:13:18.739Z,17.57
2019-04-20T04:15:21.171Z,16.85
2019-04-20T04:17:30.734Z,16.93
2019-04-20T04:19:33.258Z,17.02
2019-04-20T04:21:52.528Z,17.30
2019-04-20T04:23:55.846Z,17.85
2019-04-20T04:26:00.850Z,17.17
2019-04-20T04:28:03.862Z,17.90
2019-04-20T04:30:08.016Z,18.42
2019-04-20T04:32:21.108Z,17.70
2019-04-20T04:34:18.361Z,18.10
2019-04-20T04:36:16.566Z,18.40
2019-04-20T04:38:32.749Z,17.92
2019-04-20T04:40:42.745Z,17.87
2019-04-20T04:42:34.258Z,17.73
2019-04-20T04:44:30.257Z,18.00
2019-04-20T04:46:22.778Z,17.77
2019-04-20T04:48:31.046Z,18.57
2019-04-20T04:50:31.463Z,18.15
2019-04-20T04:52:47.908Z,17.52
2019-04-20T04:54:47.459Z,17.27
2019-04-20T04:56:41.960Z,17.45
2019-04-20T04:58:44.695Z,17.87
2019-04-20T05:00:46.845Z,17.30
2019-04-20T05:02:53.811Z,17.17
2019-04-20T05:05:43.759Z,17.50
2019-04-20T05:07:42.687Z,17.80
2019-04-20T05:09:31.838Z,17.32
2019-04-20T05:11:35.574Z,17.62
2019-04-20T05:13:47.963Z,17.48
2019-04-20T05:15:58.353Z,17.30
2019-04-20T05:18:07.217Z,16.87
2019-04-20T05:20:12.348Z,16.87
2019-04-20T05:22:21.836Z,18.77
2019-04-20T05:24:43.568Z,17.32
2019-04-20T05:26:55.622Z,16.50
2019-04-20T05:28:59.128Z,18.25
2019-04-20T05:30:59.980Z,17.52
2019-04-20T05:33:07.824Z,17.07
2019-04-20T05:35:26.761Z,18.12
2019-04-20T05:37:34.582Z,17.50
2019-04-20T05:39:32.653Z,17.85
2019-04-20T05:41:32.426Z,18.02
2019-04-20T05:43:41.219Z,16.40
2019-04-20T05:45:45.403Z,17.85
2019-04-20T05:47:55.453Z,17.02
2019-04-20T05:49:53.855Z,17.17
2019-04-20T05:52:10.260Z,16.73
2019-04-20T05:54:11.957Z,16.48
2019-04-20T05:56:10.623Z,16.42
2019-04-20T05:58:19.279Z,16.93
2019-04-20T06:00:20.229Z,17.25
2019-04-20T06:02:25.232Z,17.35
2019-04-20T06:04:42.684Z,16.95
2019-04-20T06:06:33.147Z,16.67
2019-04-20T06:11:04.170Z,17.02
2019-04-20T06:13:06.571Z,17.48
2019-04-20T06:15:22.385Z,16.42
2019-04-20T06:17:55.401Z,17.62
2019-04-20T06:20:00.495Z,17.15
2019-04-20T06:22:31.414Z,17.12
2019-04-20T06:24:39.791Z,17.25
2019-04-20T06:26:49.007Z,17.35
2019-04-20T06:28:41.536Z,16.85
2019-04-20T06:30:45.554Z,16.40
2019-04-20T06:33:50.232Z,16.23
2019-04-20T06:35:54.500Z,16.48
2019-04-20T06:37:36.223Z,16.55
2019-04-20T06:44:02.552Z,16.02
2019-04-20T06:46:04.377Z,16.32
2019-04-20T06:48:12.253Z,17.00
2019-04-20T06:50:08.647Z,16.57
2019-04-20T06:52:25.669Z,16.30
2019-04-20T06:54:42.189Z,17.02
2019-04-20T06:56:51.070Z,16.87
2019-04-20T06:59:02.245Z,16.57
2019-04-20T07:00:58.888Z,17.07
2019-04-20T07:02:58.902Z,17.17
2019-04-20T07:05:10.032Z,16.35
2019-04-20T07:07:14.349Z,16.60
2019-04-20T07:09:14.158Z,16.25
2019-04-20T07:11:18.737Z,16.60
2019-04-20T07:13:11.538Z,15.63
2019-04-20T07:15:26.979Z,16.75
2019-04-20T07:20:00.229Z,16.52
2019-04-20T07:24:26.281Z,15.50
2019-04-20T07:26:29.155Z,16.23
2019-04-20T07:28:40.824Z,15.65
2019-04-20T07:30:35.237Z,15.70
2019-04-20T07:32:48.464Z,16.75
2019-04-20T07:34:47.496Z,15.32
2019-04-20T07:37:04.215Z,16.75
2019-04-20T07:38:53.877Z,16.23
2019-04-20T07:40:58.851Z,16.00
2019-04-20T07:43:14.665Z,15.15
2019-04-20T07:45:07.200Z,15.15
2019-04-20T07:47:13.840Z,16.42
2019-04-20T07:49:21.846Z,15.88
2019-04-20T07:51:09.163Z,15.80
2019-04-20T07:53:20.397Z,16.32
2019-04-20T07:55:39.211Z,17.15
2019-04-20T07:57:31.260Z,15.93
2019-04-20T07:59:27.623Z,16.17
2019-04-20T08:02:00.826Z,16.40
2019-04-20T08:06:18.375Z,15.48
2019-04-20T08:10:33.653Z,15.60
2019-04-20T08:12:55.532Z,15.63
2019-04-20T08:15:05.067Z,15.75
2019-04-20T08:18:59.748Z,15.60
2019-04-20T08:21:08.205Z,15.60
2019-04-20T08:23:14.996Z,14.53
2019-04-20T08:25:08.918Z,15.23
2019-04-20T08:27:06.490Z,14.23
2019-04-20T08:29:45.167Z,14.50
2019-04-20T08:32:21.438Z,14.47
2019-04-20T08:34:33.666Z,13.88
2019-04-20T08:36:34.598Z,14.47
2019-04-20T08:39:00.186Z,15.70
2019-04-20T08:40:40.002Z,15.15
2019-04-20T08:42:49.757Z,14.65
2019-04-20T08:47:06.163Z,15.18
2019-04-20T08:48:58.167Z,12.68
2019-04-20T08:51:06.118Z,13.55
2019-04-20T08:53:15.977Z,12.98
2019-04-20T08:55:04.709Z,13.13
2019-04-20T08:56:58.065Z,13.43
2019-04-20T08:58:57.652Z,13.45
2019-04-20T09:01:03.946Z,13.53
2019-04-20T09:03:15.322Z,13.72
2019-04-20T09:05:24.929Z,13.15
2019-04-20T09:07:19.644Z,12.43
2019-04-20T09:09:44.303Z,14.15
2019-04-20T09:11:45.227Z,13.48
2019-04-20T09:13:34.256Z,13.75
2019-04-20T09:15:29.949Z,12.30
2019-04-20T09:17:49.496Z,12.80
2019-04-20T09:19:55.855Z,13.72
2019-04-20T09:22:24.280Z,12.03
2019-04-20T09:24:34.637Z,12.85
2019-04-20T09:26:37.699Z,13.03
2019-04-20T09:28:58.985Z,12.60
2019-04-20T09:31:12.037Z,18.00
2019-04-20T09:33:34.829Z,13.08
2019-04-20T09:35:37.305Z,12.10
2019-04-20T09:37:53.967Z,13.08
2019-04-20T09:40:05.534Z,12.65
2019-04-20T09:42:01.469Z,12.25
2019-04-20T09:44:00.451Z,13.15
2019-04-20T09:46:06.826Z,12.50
2019-04-20T09:48:13.906Z,12.47
2019-04-20T09:50:27.806Z,12.68
2019-04-20T09:52:29.043Z,12.50
2019-04-20T09:54:37.057Z,12.98
2019-04-20T09:56:37.180Z,12.15
2019-04-20T09:58:45.200Z,12.53
2019-04-20T10:00:59.466Z,12.18
2019-04-20T10:02:48.448Z,11.90
2019-04-20T10:04:51.465Z,13.18
2019-04-20T10:06:53.644Z,13.05
2019-04-20T10:08:58.276Z,12.73
2019-04-20T10:10:59.868Z,12.20
2019-04-20T10:13:02.498Z,12.73
2019-04-20T10:15:12.194Z,12.55
2019-04-20T10:17:11.864Z,12.18
2019-04-20T10:19:13.939Z,11.38
2019-04-20T10:21:16.129Z,12.18
2019-04-20T10:23:18.605Z,11.35
2019-04-20T10:25:20.647Z,11.68
2019-04-20T10:27:22.647Z,12.78
2019-04-20T10:29:25.836Z,13.58
2019-04-20T10:31:28.599Z,16.97
2019-04-20T10:33:31.340Z,12.53
2019-04-20T10:35:34.072Z,11.57
2019-04-20T10:37:43.705Z,10.82
2019-04-20T10:39:46.810Z,10.82
2019-04-20T10:41:55.360Z,11.20
2019-04-20T10:43:53.397Z,12.33
2019-04-20T10:45:55.499Z,11.93
2019-04-20T10:47:59.039Z,12.43
2019-04-20T10:50:01.187Z,11.97
2019-04-20T10:52:03.214Z,10.60
2019-04-20T10:54:06.697Z,10.38
2019-04-20T10:56:09.597Z,10.63
2019-04-20T10:58:13.521Z,10.95
2019-04-20T11:00:17.427Z,11.18
2019-04-20T11:02:19.816Z,11.63
2019-04-20T11:04:22.952Z,11.45
2019-04-20T11:06:25.296Z,11.45
2019-04-20T11:08:28.661Z,12.93
2019-04-20T11:10:46.842Z,11.33
2019-04-20T11:12:35.035Z,11.63
2019-04-20T11:14:40.933Z,10.78
2019-04-20T11:16:42.416Z,10.20
2019-04-20T11:18:45.296Z,10.50
2019-04-20T11:20:49.116Z,10.08
2019-04-20T11:22:52.638Z,10.43
2019-04-20T11:24:56.422Z,10.45
2019-04-20T11:26:58.769Z,9.85
2019-04-20T11:29:02.061Z,8.33
2019-04-20T11:31:05.917Z,8.53
2019-04-20T11:33:08.161Z,10.15
2019-04-20T11:35:21.303Z,9.75
2019-04-20T11:37:15.271Z,9.65
2019-04-20T11:39:20.914Z,8.88
2019-04-20T11:41:26.127Z,9.25
2019-04-20T11:43:27.174Z,8.58
2019-04-20T11:45:30.924Z,9.15
2019-04-20T11:47:33.685Z,8.43
2019-04-20T11:49:37.532Z,9.40
2019-04-20T11:51:39.788Z,8.43
2019-04-20T11:53:42.684Z,8.15
2019-04-20T11:55:46.530Z,9.10
2019-04-20T11:57:49.401Z,8.35
2019-04-20T11:59:52.911Z,8.05
2019-04-20T12:02:25.314Z,8.00
2019-04-20T12:04:40.405Z,8.55
2019-04-20T12:06:34.814Z,9.98
2019-04-20T12:08:39.375Z,9.40
2019-04-20T12:10:43.838Z,10.00
2019-04-20T12:12:50.241Z,9.00
2019-04-20T12:14:50.479Z,9.70
2019-04-20T12:16:53.401Z,9.65
2019-04-20T12:18:56.774Z,9.73
2019-04-20T12:21:00.826Z,9.10
2019-04-20T12:23:04.326Z,11.10
2019-04-20T12:25:06.409Z,10.50
2019-04-20T12:27:09.037Z,10.28
2019-04-20T12:29:12.070Z,11.00
2019-04-20T12:31:20.306Z,10.65
2019-04-20T12:33:18.193Z,11.38
2019-04-20T12:35:20.280Z,11.68
2019-04-20T12:37:22.952Z,11.75
2019-04-20T12:39:25.207Z,12.30
2019-04-20T12:41:37.879Z,11.55
2019-04-20T12:43:32.031Z,11.68
2019-04-20T12:45:35.571Z,12.68
2019-04-20T12:47:37.997Z,11.83
2019-04-20T12:49:41.136Z,11.70
2019-04-20T12:51:50.730Z,10.90
2019-04-20T12:53:48.748Z,11.05
2019-04-20T12:55:51.081Z,10.70
2019-04-20T12:57:54.496Z,9.98
2019-04-20T12:59:57.265Z,11.08
2019-04-20T13:01:59.760Z,11.83
2019-04-20T13:04:04.303Z,12.00
2019-04-20T13:06:05.996Z,11.83
2019-04-20T13:08:09.323Z,11.63
2019-04-20T13:10:13.672Z,11.38
2019-04-20T13:12:26.473Z,11.83
2019-04-20T13:15:02.464Z,12.25
2019-04-20T13:17:05.001Z,11.10
2019-04-20T13:19:08.967Z,10.53
2019-04-20T13:21:11.284Z,11.80
2019-04-20T13:23:14.998Z,8.45
2019-04-20T13:25:17.057Z,9.00
2019-04-20T13:27:19.188Z,9.00
2019-04-20T13:29:22.704Z,9.55
2019-04-20T13:31:26.067Z,9.70
2019-04-20T13:33:29.424Z,9.18
2019-04-20T13:35:32.234Z,9.00
2019-04-20T13:37:37.203Z,9.88
2019-04-20T13:39:38.738Z,9.33
2019-04-20T13:41:42.205Z,9.08
2019-04-20T13:43:44.279Z,9.40
2019-04-20T13:45:46.867Z,9.38
2019-04-20T13:47:49.224Z,9.85
2019-04-20T13:49:52.523Z,10.23
2019-04-20T13:51:54.954Z,9.88
2019-04-20T13:53:57.475Z,9.60
2019-04-20T13:56:00.035Z,10.28
2019-04-20T13:58:25.663Z,10.28
2019-04-20T14:01:08.507Z,10.75
2019-04-20T14:03:11.170Z,10.35
2019-04-20T14:05:15.370Z,10.38
2019-04-20T14:07:19.129Z,10.35
2019-04-20T14:09:25.515Z,10.10
2019-04-20T14:11:29.363Z,10.75
2019-04-20T14:13:39.229Z,11.97
2019-04-20T14:15:35.746Z,10.93
2019-04-20T14:17:39.259Z,11.18
2019-04-20T14:19:43.151Z,11.60
2019-04-20T14:21:46.162Z,11.83
2019-04-20T14:23:48.645Z,10.68
2019-04-20T14:27:53.467Z,10.38
2019-04-20T14:29:55.531Z,11.45
2019-04-20T14:32:00.578Z,12.13
2019-04-20T14:34:02.714Z,12.03
2019-04-20T14:36:05.250Z,12.18
2019-04-20T14:38:08.024Z,11.68
2019-04-20T14:40:10.432Z,12.82
2019-04-20T14:44:16.760Z,11.88
2019-04-20T14:46:18.885Z,12.37
2019-04-20T14:48:21.040Z,24.30
2019-04-20T14:50:23.520Z,12.70
2019-04-20T14:52:26.055Z,12.25
2019-04-20T14:56:31.409Z,11.88
2019-04-20T14:58:41.395Z,12.28
2019-04-20T15:00:51.818Z,11.48
2019-04-20T15:02:54.145Z,11.38
2019-04-20T15:04:56.982Z,11.55
2019-04-20T15:07:00.190Z,12.05
2019-04-20T15:09:04.760Z,11.95
2019-04-20T15:11:07.325Z,11.93
2019-04-20T15:13:11.275Z,11.78
2019-04-20T15:15:14.668Z,12.37
2019-04-20T15:17:31.015Z,11.08
2019-04-20T15:19:41.384Z,13.13
2019-04-20T15:21:45.455Z,22.37
2019-04-20T15:23:47.946Z,13.10
2019-04-20T15:27:54.378Z,12.40
2019-04-20T15:29:56.468Z,12.80
2019-04-20T15:31:59.784Z,13.68
2019-04-20T15:34:04.295Z,12.73
2019-04-20T15:36:06.586Z,11.90
2019-04-20T15:38:09.109Z,13.05
2019-04-20T15:40:13.045Z,12.55
2019-04-20T15:42:15.439Z,12.53
2019-04-20T15:44:17.570Z,12.13
2019-04-20T15:46:21.259Z,12.25
2019-04-20T15:48:23.861Z,12.15
2019-04-20T15:50:27.586Z,12.45
2019-04-20T15:52:36.875Z,12.37
2019-04-20T15:54:34.074Z,12.28
2019-04-20T15:56:37.597Z,12.37
2019-04-20T15:58:40.746Z,11.73
2019-04-20T16:00:42.848Z,12.53
2019-04-20T16:02:55.066Z,11.28
2019-04-20T16:05:10.378Z,11.95
2019-04-20T16:07:13.160Z,11.48
2019-04-20T16:09:15.690Z,12.70
2019-04-20T16:11:19.338Z,11.60
2019-04-20T16:13:27.896Z,11.38
2019-04-20T16:15:25.501Z,12.40
2019-04-20T16:17:33.763Z,11.80
2019-04-20T16:19:40.778Z,11.22
2019-04-20T16:21:37.392Z,10.90
2019-04-20T16:23:59.325Z,11.70
2019-04-20T16:26:15.562Z,10.43
2019-04-20T16:28:19.436Z,11.30
2019-04-20T16:30:23.289Z,10.85
2019-04-20T16:32:26.685Z,11.28
2019-04-20T16:34:29.654Z,10.30
2019-04-20T16:36:32.424Z,10.43
2019-04-20T16:38:35.137Z,10.93
2019-04-20T16:40:37.824Z,10.15
2019-04-20T16:42:42.219Z,10.05
2019-04-20T16:44:45.239Z,10.48
2019-04-20T16:46:48.096Z,12.73
2019-04-20T16:48:50.701Z,10.90
2019-04-20T16:52:55.399Z,10.70
2019-04-20T16:54:57.816Z,10.58
2019-04-20T16:59:07.078Z,28.75
2019-04-20T17:01:07.768Z,13.90
2019-04-20T17:05:11.732Z,10.90
2019-04-20T17:07:39.693Z,11.57
2019-04-20T17:09:42.421Z,10.95
2019-04-20T17:11:45.696Z,11.08
2019-04-20T17:13:53.048Z,10.88
2019-04-20T17:15:52.300Z,11.12
2019-04-20T17:17:55.722Z,11.28
2019-04-20T17:19:59.672Z,10.75
2019-04-20T17:22:03.551Z,11.08
2019-04-20T17:24:07.052Z,11.48
2019-04-20T17:26:11.920Z,10.70
2019-04-20T17:28:43.191Z,10.10
2019-04-20T17:31:03.138Z,10.18
2019-04-20T17:33:08.254Z,10.43
2019-04-20T17:35:23.242Z,10.63
2019-04-20T17:37:14.886Z,9.95
2019-04-20T17:39:27.757Z,10.98
2019-04-20T17:41:42.941Z,10.08
2019-04-20T17:43:33.179Z,9.50
2019-04-20T17:45:41.487Z,10.10
2019-04-20T17:47:50.194Z,9.55
2019-04-20T17:49:57.649Z,9.63
2019-04-20T17:52:07.705Z,9.45
2019-04-20T17:54:06.981Z,9.15
2019-04-20T17:56:09.197Z,9.05
2019-04-20T17:58:18.865Z,9.60
2019-04-20T18:00:22.483Z,10.28
2019-04-20T18:02:57.236Z,9.60
2019-04-20T18:05:15.965Z,9.05
2019-04-20T18:07:04.338Z,9.18
2019-04-20T18:09:07.072Z,9.85
2019-04-20T18:11:07.989Z,9.43
2019-04-20T18:13:12.096Z,8.80
2019-04-20T18:15:27.810Z,10.32
2019-04-20T18:17:54.712Z,11.48
2019-04-20T18:19:47.205Z,10.50
2019-04-20T18:21:53.923Z,11.08
2019-04-20T18:23:56.387Z,10.20
2019-04-20T18:28:15.119Z,10.05
2019-04-20T18:30:24.032Z,10.68
2019-04-20T18:32:27.436Z,10.08
2019-04-20T18:34:57.260Z,10.50
2019-04-20T18:36:56.494Z,9.80
2019-04-20T18:39:04.277Z,9.93
2019-04-20T18:41:07.786Z,14.80
2019-04-20T18:43:13.335Z,8.73
2019-04-20T18:45:28.344Z,10.15
2019-04-20T18:47:33.519Z,11.55
2019-04-20T18:49:35.038Z,10.43
2019-04-20T18:51:23.838Z,8.40
2019-04-20T18:53:32.495Z,9.55
2019-04-20T18:55:41.645Z,8.55
2019-04-20T18:57:34.962Z,9.28
2019-04-20T18:59:43.800Z,9.03
2019-04-20T19:01:43.799Z,8.25
2019-04-20T19:03:47.731Z,8.85
2019-04-20T19:05:51.668Z,8.95
2019-04-20T19:07:59.900Z,9.98
2019-04-20T19:10:05.497Z,9.75
2019-04-20T19:12:05.826Z,10.05
2019-04-20T19:14:33.564Z,9.45
2019-04-20T19:16:50.755Z,9.93
2019-04-20T19:19:00.525Z,10.37
2019-04-20T19:20:59.107Z,9.93
2019-04-20T19:23:02.122Z,10.60
2019-04-20T19:25:05.723Z,10.48
2019-04-20T19:27:12.255Z,10.58
2019-04-20T19:29:22.164Z,10.90
2019-04-20T19:31:35.478Z,10.88
2019-04-20T19:33:33.160Z,10.93
2019-04-20T19:35:39.995Z,10.98
2019-04-20T19:37:34.878Z,11.57
2019-04-20T19:39:50.352Z,10.60
2019-04-20T19:41:47.749Z,10.95
2019-04-20T19:43:53.262Z,10.50
2019-04-20T19:46:16.676Z,10.72
2019-04-20T19:48:07.677Z,11.43
2019-04-20T19:50:25.172Z,11.88
2019-04-20T19:52:36.776Z,11.35
2019-04-20T19:54:24.120Z,11.78
2019-04-20T19:56:26.125Z,11.33
2019-04-20T19:58:26.452Z,11.15
2019-04-20T20:00:22.746Z,11.20
2019-04-20T20:02:25.908Z,11.65
2019-04-20T20:04:32.175Z,11.25
2019-04-20T20:06:41.309Z,11.63
2019-04-20T20:08:39.979Z,11.88
2019-04-20T20:10:44.167Z,11.85
2019-04-20T20:12:49.490Z,11.53
2019-04-20T20:14:51.257Z,11.75
2019-04-20T20:17:08.647Z,12.98
2019-04-20T20:19:07.713Z,15.18
2019-04-20T20:21:15.226Z,17.92
2019-04-20T20:23:05.718Z,19.30
2019-04-20T20:25:09.298Z,19.57
2019-04-20T20:27:20.721Z,16.15
2019-04-20T20:29:26.209Z,14.98
2019-04-20T20:31:29.753Z,13.03
2019-04-20T20:33:39.499Z,13.20
2019-04-20T20:35:31.367Z,11.88
2019-04-20T20:37:42.494Z,12.28
2019-04-20T20:39:39.011Z,11.95
2019-04-20T20:44:25.730Z,11.60
2019-04-20T20:46:24.021Z,11.97
2019-04-20T20:48:34.045Z,11.95
2019-04-20T20:50:47.172Z,13.68
2019-04-20T20:52:36.901Z,11.22
2019-04-20T20:54:41.267Z,12.35
2019-04-20T20:56:36.722Z,11.55
2019-04-20T20:58:48.533Z,12.75
2019-04-20T21:00:50.406Z,11.57
2019-04-20T21:02:53.768Z,11.83
2019-04-20T21:04:48.979Z,12.30
2019-04-20T21:06:51.060Z,11.55
2019-04-20T21:08:56.022Z,12.20
2019-04-20T21:10:57.596Z,11.45
2019-04-20T21:13:06.535Z,11.88
2019-04-20T21:15:13.239Z,12.80
2019-04-20T21:17:17.562Z,11.80
2019-04-20T21:19:27.270Z,11.97
2019-04-20T21:21:36.047Z,11.60
2019-04-20T21:23:36.835Z,11.95
2019-04-20T21:25:37.062Z,11.63
2019-04-20T21:27:35.143Z,12.15
2019-04-20T21:29:44.427Z,12.10
2019-04-20T21:31:43.429Z,12.00
2019-04-20T21:33:46.902Z,12.65
2019-04-20T21:35:52.112Z,11.73
2019-04-20T21:38:00.437Z,11.80
2019-04-20T21:40:03.104Z,12.03
2019-04-20T21:42:09.460Z,11.95
2019-04-20T21:44:14.475Z,12.30
2019-04-20T21:46:11.945Z,12.18
2019-04-20T21:48:35.023Z,12.35
2019-04-20T21:50:34.899Z,12.00
2019-04-20T21:52:30.441Z,11.60
2019-04-20T21:54:27.804Z,12.95
2019-04-20T21:56:30.124Z,11.88
2019-04-20T21:58:39.508Z,12.25
2019-04-20T22:00:50.186Z,12.73
2019-04-20T22:02:57.011Z,11.63
2019-04-20T22:04:55.596Z,12.53
2019-04-20T22:06:58.311Z,13.05
2019-04-20T22:09:02.849Z,12.70
2019-04-20T22:11:05.946Z,13.20
2019-04-20T22:13:09.843Z,12.63
2019-04-20T22:15:19.854Z,13.15
2019-04-20T22:17:23.570Z,13.00
2019-04-20T22:19:30.603Z,13.08
2019-04-20T22:21:42.776Z,13.60
2019-04-20T22:23:47.503Z,14.00
2019-04-20T22:25:54.526Z,12.33
2019-04-20T22:27:38.862Z,13.03
2019-04-20T22:29:42.361Z,12.47
2019-04-20T22:33:56.362Z,12.55
2019-04-20T22:36:02.469Z,13.20
2019-04-20T22:38:15.832Z,12.75
2019-04-20T22:40:21.927Z,13.50
2019-04-20T22:42:22.269Z,12.58
2019-04-20T22:44:28.345Z,13.55
2019-04-20T22:46:33.612Z,13.15
2019-04-20T22:48:39.309Z,12.75
2019-04-20T22:50:50.920Z,13.72
2019-04-20T22:52:53.495Z,13.15
2019-04-20T22:55:01.375Z,13.68
2019-04-20T22:57:02.281Z,12.88
2019-04-20T22:59:02.121Z,12.82
2019-04-20T23:01:04.302Z,12.80
2019-04-20T23:03:02.947Z,13.25
2019-04-20T23:05:06.731Z,13.55
2019-04-20T23:07:10.598Z,12.78
2019-04-20T23:09:14.871Z,13.13
2019-04-20T23:11:24.627Z,13.15
2019-04-20T23:13:27.887Z,13.10
2019-04-20T23:15:25.938Z,13.30
2019-04-20T23:17:35.928Z,13.90
2019-04-20T23:19:41.598Z,13.28
2019-04-20T23:21:40.111Z,13.22
2019-04-20T23:23:41.608Z,13.93
2019-04-20T23:25:45.132Z,13.58
2019-04-20T23:27:51.231Z,14.28
2019-04-20T23:29:51.617Z,13.55
2019-04-20T23:31:59.667Z,13.62
2019-04-20T23:34:01.480Z,13.68
2019-04-20T23:36:04.378Z,13.05
2019-04-20T23:38:11.114Z,13.90
2019-04-20T23:40:13.021Z,13.30
2019-04-20T23:42:18.056Z,13.58
2019-04-20T23:44:31.555Z,13.60
2019-04-20T23:46:59.335Z,14.00
2019-04-20T23:49:22.122Z,14.38
2019-04-20T23:51:41.847Z,14.35
2019-04-20T23:53:39.509Z,13.68
2019-04-20T23:55:27.896Z,14.05
2019-04-20T23:57:31.510Z,14.33
2019-04-20T23:59:41.111Z,14.50
